Terminal Aerodrome Forecast
Issued by NWS Flagstaff, AZ

Home | Current Version | Previous Version | Text Only | Print | Product List | Glossary On
Versions: 1 2 3 4 5 6 7 8 9 10 11
809
FTUS45 KFGZ 270536
TAFFLG
TAF
KFLG 270536Z 2706/2806 24012G22KT P6SM SCT050 BKN200
      TEMPO 2710/2714 BKN040
     FM271800 25020G30KT P6SM BKN200
     FM280300 24012KT P6SM BKN120=

USA.gov is the U.S. government's official web portal to all federal, state and local government web resources and services.